createdAt,value
2018-03-01T00:01:16.643Z,95860.08
2018-03-01T00:03:44.049Z,95863.80
2018-03-01T00:06:11.456Z,95855.07
2018-03-01T00:08:38.925Z,95848.97
2018-03-01T00:11:06.321Z,95838.35
2018-03-01T00:13:33.745Z,95833.45
2018-03-01T00:16:01.208Z,95830.29
2018-03-01T00:18:28.765Z,95837.92
2018-03-01T00:20:56.285Z,95843.56
2018-03-01T00:23:23.704Z,95845.72
2018-03-01T00:25:51.127Z,95843.37
2018-03-01T00:28:18.585Z,95847.27
2018-03-01T00:30:46.193Z,95841.80
2018-03-01T00:33:13.598Z,95847.67
2018-03-01T00:35:41.030Z,95835.84
2018-03-01T00:38:08.468Z,95824.15
2018-03-01T00:40:35.901Z,95829.34
2018-03-01T00:43:03.310Z,95824.61
2018-03-01T00:45:32.038Z,95818.98
2018-03-01T00:47:59.447Z,95813.93
2018-03-01T00:50:26.929Z,95813.52
2018-03-01T00:52:54.367Z,95823.89
2018-03-01T00:55:21.786Z,95818.25
2018-03-01T00:57:49.195Z,95804.43
2018-03-01T01:00:16.617Z,95797.23
2018-03-01T01:02:44.487Z,95789.00
2018-03-01T01:05:11.940Z,95796.91
2018-03-01T01:07:39.380Z,95791.26
2018-03-01T01:10:06.853Z,95780.94
2018-03-01T01:12:34.312Z,95786.12
2018-03-01T01:15:01.753Z,95765.73
2018-03-01T01:17:29.186Z,95769.04
2018-03-01T01:19:56.618Z,95783.50
2018-03-01T01:22:24.036Z,95799.55
2018-03-01T01:24:51.491Z,95786.70
2018-03-01T01:27:25.648Z,95772.66
2018-03-01T01:29:53.117Z,95775.73
2018-03-01T01:32:20.549Z,95779.45
2018-03-01T01:34:47.952Z,95764.30
2018-03-01T01:37:15.372Z,95748.87
2018-03-01T01:39:42.799Z,95751.55
2018-03-01T01:42:11.386Z,95741.18
2018-03-01T01:44:38.820Z,95748.34
2018-03-01T01:47:07.070Z,95747.65
2018-03-01T01:49:34.526Z,95741.44
2018-03-01T01:52:01.956Z,95743.70
2018-03-01T01:54:29.397Z,95735.92
2018-03-01T01:56:56.849Z,95731.09
2018-03-01T01:59:24.289Z,95743.62
2018-03-01T02:01:51.736Z,95745.88
2018-03-01T02:04:19.179Z,95739.28
2018-03-01T02:06:46.582Z,95731.24
2018-03-01T02:09:14.046Z,95731.61
2018-03-01T02:11:41.450Z,95721.23
2018-03-01T02:14:08.912Z,95720.00
2018-03-01T02:16:36.365Z,95721.92
2018-03-01T02:19:04.631Z,95710.13
2018-03-01T02:21:32.084Z,95710.02
2018-03-01T02:23:59.498Z,95709.28
2018-03-01T02:26:26.934Z,95700.16
2018-03-01T02:28:54.345Z,95703.74
2018-03-01T02:31:22.066Z,95699.02
2018-03-01T02:33:49.561Z,95692.88
2018-03-01T02:36:28.714Z,95688.14
2018-03-01T02:38:56.171Z,95680.67
2018-03-01T02:41:23.574Z,95682.37
2018-03-01T02:43:51.142Z,95677.68
2018-03-01T02:46:18.590Z,95666.07
2018-03-01T02:48:46.017Z,95673.50
2018-03-01T02:51:13.472Z,95664.20
2018-03-01T02:53:40.956Z,95677.50
2018-03-01T02:56:08.382Z,95677.19
2018-03-01T02:58:35.893Z,95676.58
2018-03-01T03:01:03.383Z,95669.30
2018-03-01T03:03:30.810Z,95677.27
2018-03-01T03:05:58.219Z,95675.80
2018-03-01T03:08:25.642Z,95673.19
2018-03-01T03:10:53.088Z,95677.55
2018-03-01T03:13:20.664Z,95680.02
2018-03-01T03:15:48.106Z,95679.76
2018-03-01T03:18:15.512Z,95684.58
2018-03-01T03:20:42.908Z,95682.55
2018-03-01T03:23:10.380Z,95672.78
2018-03-01T03:25:37.924Z,95677.38
2018-03-01T03:28:05.364Z,95679.98
2018-03-01T03:30:32.767Z,95678.17
2018-03-01T03:33:00.896Z,95673.81
2018-03-01T03:35:28.323Z,95675.34
2018-03-01T03:37:55.740Z,95685.72
2018-03-01T03:40:23.166Z,95663.74
2018-03-01T03:42:50.614Z,95667.05
2018-03-01T03:45:18.049Z,95664.15
2018-03-01T03:47:45.457Z,95668.37
2018-03-01T03:50:12.893Z,95670.94
2018-03-01T03:52:40.339Z,95666.67
2018-03-01T03:55:07.775Z,95666.16
2018-03-01T03:57:35.374Z,95663.69
2018-03-01T04:00:02.813Z,95668.42
2018-03-01T04:02:30.239Z,95660.16
2018-03-01T04:04:57.723Z,95670.80
2018-03-01T04:07:25.129Z,95663.09
2018-03-01T04:09:52.561Z,95666.53
2018-03-01T04:12:20.015Z,95663.63
2018-03-01T04:14:47.422Z,95656.02
2018-03-01T04:17:14.902Z,95657.30
2018-03-01T04:19:42.389Z,95659.37
2018-03-01T04:22:10.344Z,95669.00
2018-03-01T04:24:37.773Z,95672.45
2018-03-01T04:27:05.187Z,95659.02
2018-03-01T04:29:32.896Z,95666.27
2018-03-01T04:32:00.359Z,95654.38
2018-03-01T04:34:27.807Z,95660.25
2018-03-01T04:36:55.238Z,95652.22
2018-03-01T04:39:22.679Z,95651.62
2018-03-01T04:41:50.079Z,95655.88
2018-03-01T04:44:17.532Z,95663.32
2018-03-01T04:46:44.990Z,95653.33
2018-03-01T04:49:12.387Z,95665.12
2018-03-01T04:51:39.849Z,95665.48
2018-03-01T04:54:07.358Z,95658.19
2018-03-01T04:56:34.775Z,95659.30
2018-03-01T04:59:02.197Z,95659.98
2018-03-01T05:01:29.639Z,95656.03
2018-03-01T05:03:57.086Z,95660.48
2018-03-01T05:06:24.497Z,95658.36
2018-03-01T05:08:52.040Z,95659.97
2018-03-01T05:11:19.437Z,95663.46
2018-03-01T05:13:46.852Z,95657.67
2018-03-01T05:16:14.271Z,95665.25
2018-03-01T05:18:41.748Z,95665.38
2018-03-01T05:21:09.184Z,95660.48
2018-03-01T05:23:36.687Z,95653.19
2018-03-01T05:26:04.137Z,95650.48
2018-03-01T05:28:31.601Z,95642.22
2018-03-01T05:30:59.097Z,95655.20
2018-03-01T05:33:26.610Z,95646.84
2018-03-01T05:35:54.061Z,95662.63
2018-03-01T05:38:21.490Z,95660.06
2018-03-01T05:40:49.480Z,95661.20
2018-03-01T05:43:17.097Z,95660.84
2018-03-01T05:45:44.551Z,95666.39
2018-03-01T05:48:11.964Z,95660.02
2018-03-01T05:50:39.424Z,95667.73
2018-03-01T05:53:07.079Z,95669.02
2018-03-01T05:55:34.565Z,95661.16
2018-03-01T05:58:01.998Z,95665.20
2018-03-01T06:00:29.398Z,95673.83
2018-03-01T06:02:56.818Z,95670.66
2018-03-01T06:05:25.410Z,95666.77
2018-03-01T06:07:52.855Z,95667.82
2018-03-01T06:10:20.312Z,95674.38
2018-03-01T06:12:47.766Z,95668.00
2018-03-01T06:15:15.209Z,95673.18
2018-03-01T06:17:42.654Z,95672.09
2018-03-01T06:20:10.094Z,95669.25
2018-03-01T06:22:37.588Z,95673.05
2018-03-01T06:25:04.998Z,95672.86
2018-03-01T06:27:32.448Z,95676.67
2018-03-01T06:29:59.889Z,95684.38
2018-03-01T06:32:27.483Z,95683.82
2018-03-01T06:34:54.899Z,95678.55
2018-03-01T06:37:22.358Z,95669.79
2018-03-01T06:39:49.851Z,95675.08
2018-03-01T06:42:17.311Z,95669.60
2018-03-01T06:44:44.727Z,95672.73
2018-03-01T06:47:12.178Z,95684.20
2018-03-01T06:49:39.640Z,95684.66
2018-03-01T06:52:07.047Z,95683.33
2018-03-01T06:54:35.407Z,95684.34
2018-03-01T06:57:02.852Z,95689.72
2018-03-01T06:59:30.445Z,95694.99
2018-03-01T07:01:57.895Z,95689.21
2018-03-01T07:04:25.358Z,95693.11
2018-03-01T07:06:52.852Z,95695.69
2018-03-01T07:09:20.330Z,95685.54
2018-03-01T07:11:47.801Z,95687.00
2018-03-01T07:14:15.329Z,95681.95
2018-03-01T07:16:42.730Z,95681.41
2018-03-01T07:19:10.168Z,95687.59
2018-03-01T07:21:38.394Z,95687.36
2018-03-01T07:24:05.880Z,95689.66
2018-03-01T07:26:33.326Z,95682.44
2018-03-01T07:29:00.786Z,95675.04
2018-03-01T07:31:28.233Z,95680.88
2018-03-01T07:33:56.309Z,95677.63
2018-03-01T07:36:23.828Z,95691.35
2018-03-01T07:38:51.256Z,95680.00
2018-03-01T07:41:18.762Z,95683.15
2018-03-01T07:43:46.189Z,95677.71
2018-03-01T07:46:13.641Z,95687.55
2018-03-01T07:48:41.139Z,95681.91
2018-03-01T07:51:08.625Z,95681.02
2018-03-01T07:53:36.338Z,95679.33
2018-03-01T07:56:03.903Z,95683.48
2018-03-01T07:58:31.349Z,95684.12
2018-03-01T08:00:59.613Z,95676.50
2018-03-01T08:03:27.081Z,95678.66
2018-03-01T08:05:54.514Z,95682.78
2018-03-01T08:08:21.971Z,95676.85
2018-03-01T08:10:49.543Z,95680.23
2018-03-01T08:13:17.040Z,95684.55
2018-03-01T08:15:44.504Z,95683.62
2018-03-01T08:18:11.937Z,95685.23
2018-03-01T08:20:39.328Z,95684.03
2018-03-01T08:23:06.760Z,95682.23
2018-03-01T08:25:34.226Z,95679.36
2018-03-01T08:28:01.730Z,95677.11
2018-03-01T08:30:29.332Z,95678.19
2018-03-01T08:32:56.735Z,95674.33
2018-03-01T08:35:24.657Z,95676.76
2018-03-01T08:37:52.187Z,95676.80
2018-03-01T08:40:19.792Z,95672.63
2018-03-01T08:42:47.312Z,95669.66
2018-03-01T08:45:14.715Z,95681.87
2018-03-01T08:47:42.103Z,95677.89
2018-03-01T08:50:09.507Z,95674.43
2018-03-01T08:52:36.949Z,95673.61
2018-03-01T08:55:05.279Z,95668.81
2018-03-01T08:57:32.857Z,95663.38
2018-03-01T09:00:00.541Z,95661.77
2018-03-01T09:02:27.943Z,95658.36
2018-03-01T09:04:55.387Z,95658.77
2018-03-01T09:07:22.825Z,95655.38
2018-03-01T09:09:50.220Z,95656.98
2018-03-01T09:12:17.721Z,95655.44
2018-03-01T09:14:45.159Z,95652.66
2018-03-01T09:17:12.606Z,95653.62
2018-03-01T09:19:40.170Z,95654.25
2018-03-01T09:22:07.631Z,95642.75
2018-03-01T09:24:35.055Z,95645.67
2018-03-01T09:27:02.513Z,95646.34
2018-03-01T09:29:30.248Z,95642.53
2018-03-01T09:31:57.733Z,95643.42
2018-03-01T09:34:25.165Z,95641.22
2018-03-01T09:36:52.721Z,95636.36
2018-03-01T09:39:20.145Z,95636.41
2018-03-01T09:41:47.839Z,95637.92
2018-03-01T09:44:15.310Z,95633.50
2018-03-01T09:46:43.371Z,95637.86
2018-03-01T09:49:10.836Z,95636.52
2018-03-01T09:51:38.238Z,95641.08
2018-03-01T09:54:05.680Z,95635.47
2018-03-01T09:56:33.110Z,95636.22
2018-03-01T09:59:00.719Z,95639.08
2018-03-01T10:01:28.164Z,95632.83
2018-03-01T10:03:55.573Z,95635.11
2018-03-01T10:06:22.987Z,95637.00
2018-03-01T10:08:50.500Z,95635.92
2018-03-01T10:11:17.932Z,95636.11
2018-03-01T10:13:45.758Z,95636.36
2018-03-01T10:16:13.165Z,95635.27
2018-03-01T10:18:40.628Z,95634.84
2018-03-01T10:21:08.118Z,95631.48
2018-03-01T10:23:35.518Z,95633.45
2018-03-01T10:26:02.959Z,95634.21
2018-03-01T10:28:30.400Z,95624.64
2018-03-01T10:30:57.861Z,95624.59
2018-03-01T10:36:19.895Z,95624.30
2018-03-01T10:38:47.325Z,95615.90
2018-03-01T10:41:15.424Z,95613.16
2018-03-01T10:43:42.870Z,95610.56
2018-03-01T10:46:10.401Z,95615.02
2018-03-01T10:48:37.871Z,95608.28
2018-03-01T10:51:05.256Z,95610.69
2018-03-01T10:53:32.725Z,95611.61
2018-03-01T10:56:00.134Z,95603.94
2018-03-01T10:58:27.650Z,95606.04
2018-03-01T11:00:59.025Z,95602.59
2018-03-01T11:03:27.002Z,95602.23
2018-03-01T11:05:54.424Z,95601.05
2018-03-01T11:08:21.812Z,95597.64
2018-03-01T11:10:49.304Z,95591.49
2018-03-01T11:13:16.835Z,95600.52
2018-03-01T11:15:44.289Z,95588.92
2018-03-01T11:18:11.723Z,95586.17
2018-03-01T11:20:40.153Z,95573.22
2018-03-01T11:23:07.650Z,95578.36
2018-03-01T11:25:35.270Z,95564.11
2018-03-01T11:28:02.694Z,95564.52
2018-03-01T11:30:30.185Z,95569.02
2018-03-01T11:32:57.945Z,95563.03
2018-03-01T11:35:25.363Z,95551.09
2018-03-01T11:37:52.848Z,95551.44
2018-03-01T11:40:20.299Z,95553.61
2018-03-01T11:42:47.787Z,95554.02
2018-03-01T11:45:15.277Z,95549.22
2018-03-01T11:47:42.797Z,95554.65
2018-03-01T11:50:10.250Z,95539.19
2018-03-01T11:52:37.701Z,95542.55
2018-03-01T11:55:05.144Z,95535.86
2018-03-01T11:57:32.591Z,95529.59
2018-03-01T12:00:00.055Z,95532.21
2018-03-01T12:02:27.535Z,95532.54
2018-03-01T12:04:54.960Z,95522.10
2018-03-01T12:07:22.376Z,95517.97
2018-03-01T12:09:49.834Z,95512.82
2018-03-01T12:12:17.269Z,95498.74
2018-03-01T12:14:44.709Z,95497.73
2018-03-01T12:17:12.169Z,95503.41
2018-03-01T12:19:39.654Z,95497.20
2018-03-01T12:22:07.072Z,95484.86
2018-03-01T12:24:34.655Z,95489.28
2018-03-01T12:27:02.217Z,95487.09
2018-03-01T12:29:29.642Z,95484.72
2018-03-01T12:31:57.218Z,95480.75
2018-03-01T12:34:24.633Z,95478.91
2018-03-01T12:36:52.129Z,95480.57
2018-03-01T12:39:19.600Z,95478.17
2018-03-01T12:41:47.048Z,95464.73
2018-03-01T12:44:14.499Z,95461.96
2018-03-01T12:46:41.956Z,95449.11
2018-03-01T12:49:09.613Z,95436.63
2018-03-01T12:51:37.016Z,95437.42
2018-03-01T12:54:04.431Z,95435.17
2018-03-01T12:56:31.872Z,95437.11
2018-03-01T12:58:59.349Z,95434.61
2018-03-01T13:01:26.787Z,95427.41
2018-03-01T13:03:54.228Z,95432.99
2018-03-01T13:06:21.649Z,95422.28
2018-03-01T13:08:49.088Z,95425.68
2018-03-01T13:11:16.490Z,95429.95
2018-03-01T13:13:43.917Z,95422.94
2018-03-01T13:16:11.332Z,95427.15
2018-03-01T13:18:38.766Z,95424.32
2018-03-01T13:21:06.172Z,95417.62
2018-03-01T13:23:33.715Z,95420.24
2018-03-01T13:26:01.382Z,95419.13
2018-03-01T13:28:29.310Z,95414.55
2018-03-01T13:30:56.721Z,95415.70
2018-03-01T13:33:24.139Z,95406.11
2018-03-01T13:36:02.375Z,95408.84
2018-03-01T13:38:29.916Z,95399.89
2018-03-01T13:40:57.300Z,95397.34
2018-03-01T13:43:25.547Z,95382.22
2018-03-01T13:45:52.975Z,95383.71
2018-03-01T13:48:20.377Z,95390.34
2018-03-01T13:50:47.793Z,95381.45
2018-03-01T13:53:15.227Z,95382.08
2018-03-01T13:55:42.740Z,95383.84
2018-03-01T13:58:10.152Z,95375.14
2018-03-01T14:00:37.593Z,95365.63
2018-03-01T14:03:05.357Z,95369.97
2018-03-01T14:05:32.880Z,95362.73
2018-03-01T14:08:00.281Z,95366.62
2018-03-01T14:10:27.711Z,95370.91
2018-03-01T14:13:00.765Z,95363.14
2018-03-01T14:15:28.203Z,95366.09
2018-03-01T14:17:55.936Z,95357.48
2018-03-01T14:20:30.844Z,95352.73
2018-03-01T14:23:08.189Z,95345.30
2018-03-01T14:25:38.151Z,95340.33
2018-03-01T14:28:23.223Z,95332.87
2018-03-01T14:30:50.658Z,95336.84
2018-03-01T14:33:18.095Z,95324.77
2018-03-01T14:35:45.529Z,95333.12
2018-03-01T14:38:12.966Z,95322.08
2018-03-01T14:40:40.528Z,95308.77
2018-03-01T14:43:08.006Z,95313.72
2018-03-01T14:45:35.509Z,95309.52
2018-03-01T14:48:02.951Z,95314.09
2018-03-01T14:50:31.096Z,95312.14
2018-03-01T14:52:58.501Z,95290.69
2018-03-01T14:55:26.062Z,95294.05
2018-03-01T14:57:53.538Z,95292.22
2018-03-01T15:00:21.625Z,95297.67
2018-03-01T15:02:49.047Z,95297.85
2018-03-01T15:05:16.448Z,95283.44
2018-03-01T15:07:43.859Z,95277.84
2018-03-01T15:10:11.258Z,95277.19
2018-03-01T15:12:38.874Z,95269.19
2018-03-01T15:15:06.530Z,95267.11
2018-03-01T15:17:33.924Z,95285.94
2018-03-01T15:20:01.362Z,95278.99
2018-03-01T15:22:28.909Z,95272.41
2018-03-01T15:24:56.434Z,95273.84
2018-03-01T15:27:23.865Z,95268.20
2018-03-01T15:29:51.301Z,95258.31
2018-03-01T15:32:18.715Z,95251.48
2018-03-01T15:34:46.185Z,95262.81
2018-03-01T15:37:13.580Z,95267.87
2018-03-01T15:39:40.984Z,95259.75
2018-03-01T15:42:08.392Z,95255.84
2018-03-01T15:44:36.175Z,95242.34
2018-03-01T15:47:03.709Z,95238.56
2018-03-01T15:49:31.436Z,95249.20
2018-03-01T15:54:32.771Z,95235.33
2018-03-01T15:57:00.180Z,95207.08
2018-03-01T15:59:27.870Z,95201.39
2018-03-01T16:01:55.264Z,95226.54
2018-03-01T16:04:22.744Z,95224.34
2018-03-01T16:06:50.194Z,95233.47
2018-03-01T16:09:17.582Z,95232.55
2018-03-01T16:11:44.986Z,95234.87
2018-03-01T16:14:12.390Z,95240.11
2018-03-01T16:16:39.802Z,95240.88
2018-03-01T16:19:07.199Z,95226.92
2018-03-01T16:21:34.681Z,95223.01
2018-03-01T16:24:02.155Z,95216.20
2018-03-01T16:26:29.590Z,95218.62
2018-03-01T16:28:57.070Z,95228.59
2018-03-01T16:31:24.500Z,95222.92
2018-03-01T16:33:52.001Z,95218.34
2018-03-01T16:36:19.883Z,95225.62
2018-03-01T16:38:47.288Z,95223.86
2018-03-01T16:41:14.698Z,95220.22
2018-03-01T16:43:42.099Z,95220.78
2018-03-01T16:46:09.629Z,95222.09
2018-03-01T16:48:37.089Z,95215.11
2018-03-01T16:51:04.590Z,95214.34
2018-03-01T16:53:32.003Z,95214.20
2018-03-01T16:55:59.563Z,95202.42
2018-03-01T16:58:26.973Z,95217.30
2018-03-01T17:00:54.417Z,95227.27
2018-03-01T17:03:21.847Z,95209.77
2018-03-01T17:05:49.273Z,95211.33
2018-03-01T17:08:16.760Z,95217.24
2018-03-01T17:10:44.275Z,95218.48
2018-03-01T17:13:11.676Z,95224.36
2018-03-01T17:15:39.542Z,95216.61
2018-03-01T17:18:07.020Z,95206.44
2018-03-01T17:20:34.446Z,95205.94
2018-03-01T17:23:02.437Z,95210.47
2018-03-01T17:25:29.887Z,95206.46
2018-03-01T17:27:57.428Z,95210.28
2018-03-01T17:30:24.907Z,95209.61
2018-03-01T17:32:52.304Z,95216.23
2018-03-01T17:35:19.749Z,95216.22
2018-03-01T17:37:47.285Z,95220.70
2018-03-01T17:40:14.789Z,95220.02
2018-03-01T17:42:42.163Z,95212.30
2018-03-01T17:45:09.597Z,95204.72
2018-03-01T17:47:37.025Z,95215.53
2018-03-01T17:50:04.436Z,95217.18
2018-03-01T17:52:31.905Z,95220.16
2018-03-01T17:54:59.573Z,95216.16
2018-03-01T17:57:27.002Z,95207.84
2018-03-01T17:59:54.444Z,95209.22
2018-03-01T18:02:21.840Z,95205.73
2018-03-01T18:04:49.294Z,95206.30
2018-03-01T18:07:16.725Z,95209.77
2018-03-01T18:09:44.161Z,95210.23
2018-03-01T18:12:11.597Z,95215.62
2018-03-01T18:14:39.029Z,95209.70
2018-03-01T18:17:06.479Z,95209.22
2018-03-01T18:19:33.877Z,95217.91
2018-03-01T18:22:01.300Z,95202.48
2018-03-01T18:24:28.725Z,95192.02
2018-03-01T18:26:56.161Z,95190.58
2018-03-01T18:29:23.957Z,95191.87
2018-03-01T18:31:51.421Z,95193.50
2018-03-01T18:34:18.841Z,95200.23
2018-03-01T18:36:46.247Z,95204.13
2018-03-01T18:39:13.707Z,95197.32
2018-03-01T18:41:41.142Z,95186.94
2018-03-01T18:44:08.602Z,95195.02
2018-03-01T18:46:36.007Z,95206.44
2018-03-01T18:49:03.521Z,95209.49
2018-03-01T18:51:30.959Z,95201.47
2018-03-01T18:53:58.384Z,95203.72
2018-03-01T18:56:26.086Z,95204.05
2018-03-01T18:58:53.698Z,95207.52
2018-03-01T19:01:21.948Z,95206.09
2018-03-01T19:03:49.384Z,95206.41
2018-03-01T19:06:16.834Z,95200.67
2018-03-01T19:08:44.404Z,95196.72
2018-03-01T19:11:11.844Z,95200.31
2018-03-01T19:13:39.285Z,95198.66
2018-03-01T19:16:06.683Z,95194.32
2018-03-01T19:18:34.130Z,95197.98
2018-03-01T19:21:01.628Z,95191.83
2018-03-01T19:23:29.028Z,95195.02
2018-03-01T19:25:56.575Z,95195.97
2018-03-01T19:28:24.023Z,95179.71
2018-03-01T19:30:51.424Z,95183.25
2018-03-01T19:33:18.880Z,95187.01
2018-03-01T19:35:46.342Z,95186.19
2018-03-01T19:38:13.746Z,95186.16
2018-03-01T19:40:41.283Z,95193.30
2018-03-01T19:43:08.697Z,95198.54
2018-03-01T19:45:36.148Z,95205.95
2018-03-01T19:48:03.558Z,95196.03
2018-03-01T19:50:30.956Z,95188.81
2018-03-01T19:52:58.425Z,95192.55
2018-03-01T19:55:25.815Z,95189.55
2018-03-01T19:57:53.568Z,95184.67
2018-03-01T20:00:21.000Z,95196.16
2018-03-01T20:02:48.441Z,95203.69
2018-03-01T20:05:15.855Z,95188.39
2018-03-01T20:07:43.350Z,95177.96
2018-03-01T20:10:10.862Z,95195.05
2018-03-01T20:12:38.313Z,95194.45
2018-03-01T20:15:05.769Z,95193.81
2018-03-01T20:17:33.187Z,95194.24
2018-03-01T20:20:00.637Z,95188.11
2018-03-01T20:22:28.130Z,95198.11
2018-03-01T20:24:55.534Z,95193.42
2018-03-01T20:27:22.946Z,95188.67
2018-03-01T20:29:50.390Z,95182.09
2018-03-01T20:32:17.976Z,95195.31
2018-03-01T20:34:45.403Z,95186.67
2018-03-01T20:37:13.280Z,95191.37
2018-03-01T20:39:40.677Z,95191.48
2018-03-01T20:42:08.117Z,95192.70
2018-03-01T20:44:35.564Z,95180.02
2018-03-01T20:47:03.752Z,95177.83
2018-03-01T20:49:31.213Z,95180.56
2018-03-01T20:51:58.652Z,95183.76
2018-03-01T20:54:26.057Z,95177.28
2018-03-01T20:56:53.497Z,95178.37
2018-03-01T20:59:21.369Z,95179.50
2018-03-01T21:01:48.833Z,95169.50
2018-03-01T21:04:16.271Z,95167.95
2018-03-01T21:06:43.697Z,95170.94
2018-03-01T21:09:11.136Z,95167.31
2018-03-01T21:11:38.604Z,95158.63
2018-03-01T21:14:06.052Z,95159.47
2018-03-01T21:16:33.509Z,95167.72
2018-03-01T21:19:00.998Z,95170.25
2018-03-01T21:21:28.420Z,95157.64
2018-03-01T21:23:55.980Z,95148.20
2018-03-01T21:26:23.405Z,95152.12
2018-03-01T21:28:50.845Z,95173.60
2018-03-01T21:31:18.283Z,95173.52
2018-03-01T21:33:45.723Z,95177.98
2018-03-01T21:36:13.129Z,95181.46
2018-03-01T21:38:40.592Z,95186.30
2018-03-01T21:41:08.232Z,95186.42
2018-03-01T21:43:35.695Z,95181.86
2018-03-01T21:46:03.177Z,95176.67
2018-03-01T21:48:30.620Z,95171.02
2018-03-01T21:50:58.062Z,95166.53
2018-03-01T21:53:25.525Z,95159.67
2018-03-01T21:55:52.924Z,95150.05
2018-03-01T21:58:20.316Z,95148.38
2018-03-01T22:00:48.062Z,95147.86
2018-03-01T22:03:15.455Z,95152.03
2018-03-01T22:05:42.860Z,95149.73
2018-03-01T22:08:10.314Z,95146.01
2018-03-01T22:10:38.061Z,95144.58
2018-03-01T22:13:05.487Z,95147.47
2018-03-01T22:15:32.964Z,95150.27
2018-03-01T22:18:01.602Z,95149.30
2018-03-01T22:20:29.048Z,95148.91
2018-03-01T22:22:56.596Z,95148.53
2018-03-01T22:25:23.991Z,95137.07
2018-03-01T22:27:51.439Z,95133.81
2018-03-01T22:30:18.852Z,95143.14
2018-03-01T22:32:46.265Z,95143.00
2018-03-01T22:35:13.969Z,95142.49
2018-03-01T22:37:41.362Z,95130.05
2018-03-01T22:40:09.133Z,95125.16
2018-03-01T22:42:36.629Z,95122.11
2018-03-01T22:45:04.065Z,95113.81
2018-03-01T22:47:31.468Z,95110.88
2018-03-01T22:49:59.090Z,95107.17
2018-03-01T22:52:26.514Z,95114.36
2018-03-01T22:54:53.916Z,95110.44
2018-03-01T22:57:21.308Z,95108.50
2018-03-01T22:59:48.839Z,95115.97
2018-03-01T23:02:16.360Z,95114.67
2018-03-01T23:04:43.789Z,95113.55
2018-03-01T23:07:11.233Z,95120.95
2018-03-01T23:09:39.116Z,95113.20
2018-03-01T23:12:06.535Z,95107.63
2018-03-01T23:14:33.953Z,95107.95
2018-03-01T23:17:01.484Z,95096.89
2018-03-01T23:19:29.052Z,95102.14
2018-03-01T23:21:56.480Z,95094.89
2018-03-01T23:24:23.953Z,95096.55
2018-03-01T23:26:51.352Z,95103.55
2018-03-01T23:29:18.829Z,95103.62
2018-03-01T23:31:46.263Z,95093.02
2018-03-01T23:34:13.812Z,95085.83
2018-03-01T23:36:41.246Z,95094.06
2018-03-01T23:39:09.164Z,95087.68
2018-03-01T23:41:36.634Z,95079.69
2018-03-01T23:44:04.077Z,95071.66
2018-03-01T23:46:31.479Z,95064.03
2018-03-01T23:48:59.033Z,95068.06
2018-03-01T23:51:26.468Z,95061.27
2018-03-01T23:53:54.432Z,95064.91
2018-03-01T23:56:21.873Z,95065.89
2018-03-01T23:58:49.283Z,95056.30
